Humboldt, IA (50548)

6:05 AM CST on February 19, 2017 (GMT -0600)
KIADAKOT1 | | Change Station
Active Advisory: Dense Fog Advisory

Elev 1130 ft 42.72 °N, 94.20 °W | Updated 3 minutes ago

Partly Cloudy
Partly Cloudy
37.5 °F
Feels Like 38 °F
N
1.0
Wind Variable Wind from South
Gusts 1.0 mph

Today
High -- | Low -- °F
--% Chance of Precip.
Yesterday
High -- | Low -- °F
Precip. -- in
Pressure 29.92 in
Visibility 9.0 miles
Clouds Clear
Windchill 38 °F
Dew Point 37 °F
Humidity 97%
Rainfall 0.00 in
Snow Depth Not available.
7:07 AM 5:54 PM
Last Quarter, 44% visible
METAR KFOD 191155Z AUTO 14005KT 9SM CLR 03/01 A2992 RMK AO1 10050 21010 52010
Pressure 29.92 in
Visibility 9.0 miles
Clouds Clear
Windchill 38 °F
Dew Point 37 °F
Humidity 97%
Rainfall 0.00 in
Snow Depth Not available.
7:07 AM 5:54 PM
Last Quarter, 44% visible
METAR KFOD 191155Z AUTO 14005KT 9SM CLR 03/01 A2992 RMK AO1 10050 21010 52010

Get Your Daily Forecast Email!

Thanks for signing up!

Be on the lookout for a verification email in your inbox.

You'll start receiving the daily forecast at 8 AM.

×

10-Day Weather Forecast

Almanac

Astronomy

Feb. 19, 2017 Rise Set
Actual Time
Civil Twilight
Nautical Twilight
Astronomical Twilight
Moon
Length of Visible Light
Length of Day
Tomorrow will be .
, % of the Moon is Illuminated

Today's Extremes

State Highs State Lows

Community

WunderPhotos

Upload Photos

1,962,540 photos uploaded!

WunderBlog® & News

Nearby

Air Quality

  Air Quality AQ Index Pollutant
Not available.

Snow Depth

Station Depth Elevation

Earthquake Activity

City Distance Mag. Time & Date
Minimum magnitude displayed is 2.5.

Coastal Water Temperatures

Place Temperature

Stations

Nearby Weather Stations

Station Location Temp. Windchill Dew Point Humidity Wind Precip. Elev Updated Type
                   

Watches & Warnings

Dense Fog Advisory
Issued: 4:45 AM CST Feb. 19, 2017 – National Weather Service

... Dense fog advisory remains in effect until 9 am CST this
morning...

* visibility... less than a quarter mile.

* Impacts... driving may become hazardous due to limited
visibility. Please use your fog lights and allow extra time
for travel.

Precautionary/preparedness actions...

A dense fog advisory means visibilities will frequently be
reduced to less than one quarter mile. If driving, slow down, use
your headlights, and leave plenty of distance ahead of you.



Lee